METAR Data
IDs: Format: Raw Decoded Include TAF

Data at: 1403 UTC 14 Dec 2019

PAWD 141353Z AUTO 00000KT 10SM -RA OVC024 02/01 A2961 RMK AO2 SLP026 P0005 T00220011 TSNO $
PAWD 141335Z AUTO 00000KT 7SM RA OVC026 02/01 A2960 RMK AO2 P0002 T00220011 TSNO $
PAWD 141303Z AUTO 00000KT 10SM -RA FEW028 OVC034 03/01 A2959 RMK AO2 P0000 T00280011 TSNO $
PAWD 141253Z AUTO 34005KT 10SM -RA OVC028 03/01 A2959 RMK AO2 RAB1154 SLP021 P0004 T00330011 TSNO $
PAWD 141220Z AUTO 00000KT 7SM RA OVC025 03/01 A2959 RMK AO2 RAB1154 P0002 T00280011 TSNO $
PAWD 141153Z AUTO 01003KT 10SM OVC043 03/01 A2957 RMK AO2 RAE08 SLP013 P0000 60006 70031 T00330011 10061 20028 51016 TSNO $
PAWD 141100Z AUTO 34007KT 10SM -RA OVC035 03/01 A2956 RMK AO2 P0000 T00330011 TSNO $
PAWD 141053Z AUTO 00000KT 10SM -RA OVC028 03/01 A2956 RMK AO2 SLP010 P0005 T00330011 TSNO $
PAWD 140953Z AUTO 35007KT 10SM -RA OVC026 04/01 A2955 RMK AO2 RAB24 SLP006 P0001 T00440006 TSNO $
PAWD 140951Z AUTO VRB04KT 10SM -RA OVC026 04/01 A2955 RMK AO2 RAB24 P0001 TSNO $
PAWD 140853Z AUTO VRB03KT 10SM OVC045 04/00 A2952 RMK AO2 RAB13E36 SLP997 P0000 60000 T00440000 400670033 51011 TSNO $
PAWD 140753Z AUTO 34007KT 10SM OVC060 05/M01 A2952 RMK AO2 RAB05E19 SLP996 P0000 T00501006 TSNO $
PAWD 140653Z AUTO 02009KT 350V060 10SM BKN060 OVC070 06/M02 A2950 RMK AO2 SLP988 T00611017 TSNO $
PAWD 140553Z AUTO 35014KT 10SM OVC070 06/M01 A2949 RMK AO2 SLP986 60000 T00561011 10056 20033 58010 TSNO $
PAWD 140453Z AUTO 36012KT 10SM SCT048 OVC070 05/M01 A2951 RMK AO2 RAE02 SLP994 P0000 T00501011 TSNO $
PAWD 140353Z AUTO 36011G22KT 10SM -RA OVC070 05/00 A2951 RMK AO2 RAB0258E09B47 SLP992 P0000 T00500000 TSNO $
PAWD 140253Z AUTO 36013G18KT 10SM OVC070 04/01 A2952 RMK AO2 RAB02E39 SLP996 P0000 60000 T00440006 56004 TSNO $
PAWD 140153Z AUTO 36012G18KT 10SM BKN065 BKN080 OVC110 04/01 A2953 RMK AO2 RAB01E12B36E50 SLP998 P0000 T00440011 TSNO $
PAWD 140053Z AUTO 33009KT 10SM SCT055 OVC070 04/02 A2952 RMK AO2 RAB10E37 SLP998 P0000 T00390017 TSNO $
PAWD 132353Z AUTO 05003KT 10SM SCT041 BKN065 OVC110 04/02 A2953 RMK AO2 RAE41 SLP000 P0003 60011 T00390022 10050 20033 50008 TSNO $
PAWD 132323Z AUTO 33005KT 10SM -RA OVC031 04/03 A2953 RMK AO2 P0003 T00390028 TSNO $
PAWD 132304Z AUTO 32003KT 7SM -RA OVC023 04/02 A2954 RMK AO2 P0001 T00390022 TSNO $
PAWD 132253Z AUTO 00000KT 7SM -RA OVC027 04/03 A2954 RMK AO2 RAB2155 SLP004 P0001 T00390028 TSNO $
PAWD 132245Z AUTO 32003KT 10SM -RA OVC027 04/02 A2954 RMK AO2 RAB2155 P0000 T00390022 TSNO $
PAWD 132153Z AUTO 01004KT 10SM SCT049 OVC065 04/03 A2952 RMK AO2 RAE34 SLP995 P0001 T00440028 TSNO $
PAWD 132112Z AUTO 00000KT 6SM -RA BR FEW022 BKN033 OVC046 04/02 A2951 RMK AO2 P0001 T00440022 TSNO $
PAWD 132053Z AUTO 00000KT 5SM -RA FEW018 OVC024 04/02 A2951 RMK AO2 SLP992 P0004 60006 T00440017 51018 TSNO $
PAWD 132048Z AUTO 14003KT 4SM RA BR SCT018 OVC024 04/02 A2951 RMK AO2 P0004 TSNO $
PAWD 132041Z AUTO 6SM -RA BR SCT021 OVC028 04/03 A2950 RMK AO2 P0002 T00440028 TSNO $
PAWD 131953Z AUTO 05006KT 10SM -RA FEW037 BKN047 OVC060 03/03 A2948 RMK AO2 SLP981 P0001 T00330033 TSNO $
PAWD 131853Z AUTO 35004KT 10SM -RA BKN041 OVC048 03/03 A2945 RMK AO2 SLP974 P0001 T00330028 TSNO $
PAWD 131753Z AUTO 00000KT 10SM -RA BKN050 BKN060 OVC070 04/03 A2943 RMK AO2 SLP964 P0002 60014 T00390028 10056 20039 51022 TSNO $
PAWD 131648Z AUTO 17006KT 10SM -RA FEW007 SCT034 OVC050 04/03 A2939 RMK AO2 P0001 TSNO $
PAWD 131553Z AUTO 00000KT 7SM -RA OVC031 04/04 A2936 RMK AO2 SLP942 P0005 T00440039 TSNO
PAWD 131546Z AUTO 18005KT 9SM -RA FEW027 OVC031 04/03 A2936 RMK AO2 P0005 T00440033 TSNO
PAWD 131523Z AUTO 22004KT 7SM -RA OVC029 04/03 A2934 RMK AO2 P0003 T00390033 TSNO $
PAWD 131453Z AUTO 00000KT 10SM -RA FEW020 OVC037 04/03 A2932 RMK AO2 SLP929 P0002 60006 T00440033 53033 TSNO $
PAWD 131353Z AUTO 00000KT 10SM -RA OVC040 04/03 A2929 RMK AO2 SLP917 P0001 T00440033 TSNO $
PAWD 131253Z AUTO 00000KT 10SM -RA OVC034 04/03 A2925 RMK AO2 SLP905 P0003 T00440033 TSNO $
PAWD 131153Z AUTO 00000KT 9SM -RA OVC038 06/03 A2922 RMK AO2 RAB24 SLP896 P0001 60002 7//// T00560028 10067 20028 53015 TSNO $
PAWD 131053Z AUTO 36009KT 10SM OVC065 06/02 A2919 RMK AO2 RAB0958E11 SLP885 P0000 T00610022 TSNO $
PAWD 130953Z AUTO 35003KT 10SM BKN055 OVC070 05/03 A2919 RMK AO2 RAB25E34 SLP884 P0000 T00500028 TSNO $
PAWD 130853Z AUTO 32005KT 10SM BKN060 OVC075 03/02 A2918 RMK AO2 RAE06 SLP881 P0000 60001 T00330022 400780028 58001 TSNO $
PAWD 130753Z AUTO 08004KT 10SM -RA BKN047 OVC055 04/03 A2919 RMK AO2 RAB53 SLP885 P0000 T00390028 TSNO $
PAWD 130653Z AUTO VRB04KT 10SM OVC060 04/03 A2918 RMK AO2 RAE21 SLP883 P0001 T00390033 TSNO $
PAWD 130553Z AUTO 15004KT 10SM -RA OVC041 05/03 A2918 RMK AO2 SLP882 P0002 60002 T00500033 10078 20050 53012 TSNO $
PAWD 130453Z AUTO VRB04KT 10SM -RA OVC040 06/03 A2916 RMK AO2 RAB21 SLP874 P0000 T00610028 TSNO $
PAWD 130353Z AUTO 33006KT 10SM BKN065 BKN080 OVC095 06/02 A2913 RMK AO2 SLP866 T00610017 TSNO $
PAWD 130253Z AUTO 02005KT 10SM OVC060 07/02 A2915 RMK AO2 RAE0156 SLP871 P0000 60000 T00670017 58006 TSNO $